Time;durP1;ratioP1;P1;durP2;ratioP2;P2;SDS_P1;SDS_P2;PMS_P1;PMS_P2;Temp;Humidity;BMP_temperature;BMP_pressure;BME280_temperature;BME280_humidity;BME280_pressure;Samples;Min_cycle;Max_cycle;Signal;HPM_P1;HPM_P2
2021/04/02 00:00:52;;;;;;;13.43;8.13;;;8.80;76.80;;;;;;5086747;28;20036;-70
2021/04/02 00:03:27;;;;;;;10.30;7.40;;;8.80;77.20;;;;;;5076453;28;20032;-68
2021/04/02 00:05:54;;;;;;;13.38;6.13;;;8.90;77.30;;;;;;5084663;28;20490;-67
2021/04/02 00:08:20;;;;;;;13.27;7.55;;;8.90;76.80;;;;;;5083095;28;20028;-68
2021/04/02 00:10:59;;;;;;;10.25;6.90;;;8.90;76.80;;;;;;5078513;28;20089;-66
2021/04/02 00:13:28;;;;;;;11.10;6.57;;;8.90;77.10;;;;;;5089823;28;20052;-68
2021/04/02 00:15:54;;;;;;;9.02;6.70;;;8.80;77.30;;;;;;5080332;28;20017;-67
2021/04/02 00:18:21;;;;;;;7.70;6.82;;;8.90;77.20;;;;;;5081255;28;20024;-66
2021/04/02 00:20:47;;;;;;;9.25;7.18;;;8.80;77.20;;;;;;5087603;28;20553;-69
2021/04/02 00:23:14;;;;;;;11.45;8.23;;;8.90;77.40;;;;;;5074733;28;20085;-67
2021/04/02 00:25:40;;;;;;;8.65;6.72;;;8.90;77.30;;;;;;5086506;28;20110;-67
2021/04/02 00:28:08;;;;;;;9.27;7.35;;;8.80;77.50;;;;;;5080764;28;20487;-68
2021/04/02 00:30:42;;;;;;;8.40;6.63;;;8.80;77.40;;;;;;5079581;28;20067;-68
2021/04/02 00:33:09;;;;;;;9.43;7.63;;;8.80;77.60;;;;;;5089142;28;20028;-67
2021/04/02 00:35:35;;;;;;;10.10;7.13;;;8.70;77.90;;;;;;5077502;28;20020;-67
2021/04/02 00:38:02;;;;;;;8.60;7.40;;;8.70;78.00;;;;;;5083733;28;20410;-68
2021/04/02 00:40:32;;;;;;;9.85;7.40;;;8.70;77.30;;;;;;5084635;28;20028;-69
2021/04/02 00:42:58;;;;;;;11.10;7.88;;;8.80;77.70;;;;;;5076541;28;20494;-68
2021/04/02 00:45:24;;;;;;;9.60;7.20;;;8.70;77.80;;;;;;5089081;28;20078;-69
2021/04/02 00:47:54;;;;;;;9.65;7.43;;;8.80;76.90;;;;;;5078443;28;20085;-68
2021/04/02 00:50:28;;;;;;;9.48;7.75;;;8.70;77.40;;;;;;5081769;28;20039;-69
2021/04/02 00:52:53;;;;;;;8.93;7.63;;;8.70;77.50;;;;;;5087039;28;20022;-69
2021/04/02 00:55:19;;;;;;;10.75;7.22;;;8.70;77.30;;;;;;5076061;28;20027;-69
2021/04/02 00:57:45;;;;;;;9.98;7.03;;;8.70;77.90;;;;;;5085674;28;20017;-68
2021/04/02 01:00:12;;;;;;;10.60;7.15;;;8.80;77.00;;;;;;5081795;28;20028;-68
2021/04/02 01:02:39;;;;;;;7.90;7.07;;;8.80;77.20;;;;;;5078772;28;20040;-68
2021/04/02 01:05:12;;;;;;;8.27;6.57;;;8.80;77.10;;;;;;5088813;28;20024;-67
2021/04/02 01:07:38;;;;;;;10.18;7.35;;;8.80;77.00;;;;;;5069831;28;20051;-67
2021/04/02 01:10:12;;;;;;;10.43;7.43;;;8.80;77.20;;;;;;5069415;28;20437;-68
2021/04/02 01:12:37;;;;;;;11.73;7.95;;;8.70;77.30;;;;;;5078403;28;20020;-68
2021/04/02 01:15:12;;;;;;;8.40;7.20;;;8.60;77.00;;;;;;5087495;28;20077;-68
2021/04/02 01:17:42;;;;;;;9.88;6.38;;;8.60;77.30;;;;;;5075052;28;20070;-67
2021/04/02 01:20:08;;;;;;;10.30;7.28;;;8.60;77.30;;;;;;5082505;28;20016;-68
2021/04/02 01:22:34;;;;;;;10.63;7.53;;;8.70;77.40;;;;;;5084464;28;20039;-68
2021/04/02 01:25:07;;;;;;;9.07;6.93;;;8.70;77.20;;;;;;5075057;28;20029;-67
2021/04/02 01:27:39;;;;;;;12.27;7.65;;;8.70;76.80;;;;;;5059611;28;20035;-68
2021/04/02 01:30:11;;;;;;;10.02;7.97;;;8.70;77.40;;;;;;5082710;28;20016;-67
2021/04/02 01:32:40;;;;;;;9.07;7.55;;;8.60;77.60;;;;;;5084822;28;20035;-67
2021/04/02 01:35:26;;;;;;;9.27;7.03;;;8.60;77.70;;;;;;5074997;28;20406;-68
2021/04/02 01:38:07;;;;;;;9.50;7.20;;;8.70;77.70;;;;;;5082464;28;20381;-67
2021/04/02 01:40:35;;;;;;;9.73;7.30;;;8.70;77.00;;;;;;5085290;28;20438;-68
2021/04/02 01:43:06;;;;;;;10.38;7.53;;;8.70;77.90;;;;;;5074973;28;20490;-68
2021/04/02 01:45:33;;;;;;;13.15;8.50;;;8.70;77.30;;;;;;5075774;28;20055;-67
2021/04/02 01:48:01;;;;;;;10.52;7.97;;;8.70;77.80;;;;;;5082591;28;20040;-69
2021/04/02 01:50:29;;;;;;;10.38;8.48;;;8.70;77.80;;;;;;5083274;28;20020;-68
2021/04/02 01:52:57;;;;;;;12.88;10.35;;;8.60;77.80;;;;;;5075564;28;20036;-67
2021/04/02 01:55:23;;;;;;;14.40;10.30;;;8.70;78.70;;;;;;5087862;28;20103;-68
2021/04/02 01:57:50;;;;;;;12.63;9.48;;;8.50;78.70;;;;;;5076778;28;20424;-69
2021/04/02 02:00:21;;;;;;;14.38;10.88;;;8.40;79.40;;;;;;5080769;28;20035;-67
2021/04/02 02:02:47;;;;;;;15.60;11.48;;;8.30;80.60;;;;;;5086166;28;20028;-68
2021/04/02 02:05:13;;;;;;;15.82;11.93;;;8.30;81.00;;;;;;5073994;28;20029;-68
2021/04/02 02:07:42;;;;;;;15.00;11.07;;;8.30;82.10;;;;;;5086730;28;20599;-68
2021/04/02 02:10:10;;;;;;;17.25;12.55;;;8.20;81.70;;;;;;5082240;28;20021;-68
2021/04/02 02:12:38;;;;;;;16.65;12.50;;;8.20;82.80;;;;;;5084312;28;20052;-69
2021/04/02 02:15:15;;;;;;;17.73;12.85;;;8.20;83.70;;;;;;5074532;28;20027;-68
2021/04/02 02:17:47;;;;;;;19.45;13.95;;;8.10;84.10;;;;;;5085151;28;20020;-68
2021/04/02 02:20:14;;;;;;;18.13;12.82;;;8.10;85.20;;;;;;5081240;28;20016;-68
2021/04/02 02:22:41;;;;;;;20.85;14.57;;;8.10;84.70;;;;;;5077567;28;20028;-69
2021/04/02 02:25:08;;;;;;;16.40;12.95;;;8.10;84.00;;;;;;5087775;28;20432;-68
2021/04/02 02:27:38;;;;;;;22.67;14.20;;;8.10;84.30;;;;;;5073829;28;20024;-67
2021/04/02 02:30:17;;;;;;;20.85;14.82;;;8.00;85.20;;;;;;5089762;28;20063;-68
2021/04/02 02:32:43;;;;;;;21.52;14.68;;;7.90;85.90;;;;;;5076832;28;20104;-67
2021/04/02 02:35:10;;;;;;;22.58;14.95;;;7.80;86.10;;;;;;5087574;28;20024;-68
2021/04/02 02:37:38;;;;;;;21.90;16.58;;;7.80;86.70;;;;;;5074968;28;20099;-67
2021/04/02 02:40:26;;;;;;;26.65;16.50;;;7.80;87.30;;;;;;5081937;28;20653;-67
2021/04/02 02:42:58;;;;;;;26.73;16.90;;;7.80;87.80;;;;;;5085009;28;20114;-67
2021/04/02 02:45:26;;;;;;;20.75;13.15;;;7.80;88.20;;;;;;5074251;28;20016;-67
2021/04/02 02:47:51;;;;;;;19.85;13.27;;;7.70;87.90;;;;;;5083142;28;20499;-67
2021/04/02 02:50:24;;;;;;;17.35;11.55;;;7.60;87.70;;;;;;5080960;28;20146;-68
2021/04/02 02:52:52;;;;;;;19.55;12.18;;;7.50;87.60;;;;;;5075723;28;20028;-67
2021/04/02 02:55:20;;;;;;;17.30;12.32;;;7.40;87.60;;;;;;5087409;28;20389;-68
2021/04/02 02:57:46;;;;;;;17.48;12.18;;;7.40;87.60;;;;;;5076080;28;20016;-69
2021/04/02 03:00:15;;;;;;;19.92;14.07;;;7.20;87.70;;;;;;5080844;28;20024;-68
2021/04/02 03:02:44;;;;;;;18.98;13.73;;;7.20;88.20;;;;;;5084242;28;20035;-68
2021/04/02 03:05:13;;;;;;;19.15;13.40;;;7.20;87.90;;;;;;5072884;28;20059;-68
2021/04/02 03:07:40;;;;;;;21.73;15.60;;;7.10;87.80;;;;;;5085602;28;20047;-66
2021/04/02 03:10:10;;;;;;;20.55;14.27;;;7.10;88.10;;;;;;5086647;28;20024;-68
2021/04/02 03:12:39;;;;;;;21.48;14.40;;;7.10;88.60;;;;;;5089108;28;20052;-69
2021/04/02 03:15:06;;;;;;;22.60;14.38;;;7.00;88.60;;;;;;5079703;28;20509;-68
2021/04/02 03:17:34;;;;;;;46.78;32.80;;;7.10;88.20;;;;;;5090637;28;20078;-67
2021/04/02 03:20:04;;;;;;;382.25;208.35;;;7.00;88.00;;;;;;5080956;28;20038;-66
2021/04/02 03:22:32;;;;;;;20.15;14.27;;;7.00;88.60;;;;;;5081527;28;20569;-67
2021/04/02 03:25:07;;;;;;;20.92;14.50;;;7.00;88.50;;;;;;5090137;28;20115;-67
2021/04/02 03:27:33;;;;;;;17.20;13.00;;;7.00;88.20;;;;;;5062084;28;20024;-66
2021/04/02 03:29:59;;;;;;;20.05;12.85;;;6.90;87.50;;;;;;5085604;28;20025;-68
2021/04/02 03:32:27;;;;;;;14.98;9.85;;;6.90;88.10;;;;;;5085476;28;20505;-68
2021/04/02 03:34:54;;;;;;;14.27;10.52;;;6.90;86.80;;;;;;5079135;28;20514;-68
2021/04/02 03:37:21;;;;;;;36.58;23.25;;;6.80;86.80;;;;;;5091126;28;20031;-68
2021/04/02 03:39:47;;;;;;;15.45;11.88;;;6.80;86.70;;;;;;5081311;28;20016;-68
2021/04/02 03:42:15;;;;;;;224.85;133.43;;;6.70;87.00;;;;;;5085428;28;20028;-69
2021/04/02 03:44:42;;;;;;;29.95;18.05;;;6.70;87.00;;;;;;5088777;28;20177;-67
2021/04/02 03:47:18;;;;;;;13.55;10.25;;;6.80;86.40;;;;;;5076094;28;20109;-68
2021/04/02 03:49:46;;;;;;;12.35;9.55;;;6.70;86.50;;;;;;5086170;28;20043;-67
2021/04/02 03:52:16;;;;;;;11.55;8.27;;;6.80;85.60;;;;;;5083283;28;20607;-68
2021/04/02 03:54:42;;;;;;;9.65;8.50;;;6.70;85.30;;;;;;5079178;28;20020;-69
2021/04/02 03:57:11;;;;;;;8.15;7.25;;;6.70;85.70;;;;;;5089222;28;20091;-67
2021/04/02 03:59:41;;;;;;;8.25;7.28;;;6.70;85.30;;;;;;5076968;28;20020;-67
2021/04/02 04:02:08;;;;;;;9.93;7.15;;;6.70;85.40;;;;;;5084486;28;20074;-68
2021/04/02 04:04:35;;;;;;;8.77;7.05;;;6.70;85.50;;;;;;5086204;28;20024;-68
2021/04/02 04:07:04;;;;;;;9.55;6.47;;;6.80;85.60;;;;;;5074393;28;20474;-67
2021/04/02 04:09:30;;;;;;;7.82;6.75;;;6.70;84.90;;;;;;5076741;28;20028;-67
2021/04/02 04:11:58;;;;;;;8.90;6.85;;;6.60;85.20;;;;;;5085546;28;20040;-68
2021/04/02 04:14:27;;;;;;;6.95;5.57;;;6.60;85.90;;;;;;5084526;28;20032;-68
2021/04/02 04:16:54;;;;;;;7.82;6.43;;;6.60;85.10;;;;;;5076688;28;20074;-68
2021/04/02 04:19:21;;;;;;;8.77;6.47;;;6.60;85.50;;;;;;5087921;28;20409;-68
2021/04/02 04:21:48;;;;;;;8.50;6.38;;;6.60;85.30;;;;;;5079263;28;20024;-69
2021/04/02 04:24:16;;;;;;;7.10;6.38;;;6.60;85.20;;;;;;5082730;28;20402;-68
2021/04/02 04:26:44;;;;;;;7.43;6.18;;;6.60;85.20;;;;;;5086227;28;20024;-67
2021/04/02 04:29:28;;;;;;;10.10;6.35;;;6.70;85.40;;;;;;5076141;28;20466;-68
2021/04/02 04:31:56;;;;;;;12.10;7.45;;;6.60;85.80;;;;;;5085714;28;20069;-69
2021/04/02 04:34:22;;;;;;;6.40;5.55;;;6.70;85.70;;;;;;5083862;28;20419;-68
2021/04/02 04:36:50;;;;;;;7.07;5.93;;;6.70;85.60;;;;;;5075816;28;20028;-68
2021/04/02 04:39:16;;;;;;;8.07;5.57;;;6.80;84.60;;;;;;5093133;28;20478;-69
2021/04/02 04:41:43;;;;;;;6.53;5.72;;;6.70;85.40;;;;;;5085470;28;20048;-68
2021/04/02 04:44:10;;;;;;;6.22;5.63;;;6.70;84.80;;;;;;5091186;28;20030;-68
2021/04/02 04:46:36;;;;;;;7.72;6.15;;;6.60;84.70;;;;;;5088539;28;20145;-66
2021/04/02 04:49:04;;;;;;;8.75;6.30;;;6.60;85.00;;;;;;5075420;28;20549;-69
2021/04/02 04:51:32;;;;;;;7.03;6.32;;;6.50;84.80;;;;;;5088522;28;20017;-67
2021/04/02 04:53:59;;;;;;;8.73;7.28;;;6.60;84.20;;;;;;5079242;28;20040;-67
2021/04/02 04:56:33;;;;;;;7.00;6.30;;;6.50;84.40;;;;;;5080070;28;20056;-68
2021/04/02 04:59:05;;;;;;;7.30;5.85;;;6.50;84.30;;;;;;5072304;28;20027;-68
2021/04/02 05:01:34;;;;;;;;;;;6.60;83.80;;;;;;5059567;28;20474;-69
2021/04/02 05:04:01;;;;;;;10.20;7.45;;;6.60;84.30;;;;;;5092436;28;19908;-67
2021/04/02 05:06:29;;;;;;;8.70;7.03;;;6.50;82.40;;;;;;5079516;28;20028;-67
2021/04/02 05:08:58;;;;;;;9.80;7.75;;;6.50;83.30;;;;;;5083561;28;20024;-67
2021/04/02 05:11:26;;;;;;;12.48;8.77;;;6.50;83.00;;;;;;5075280;28;20544;-68
2021/04/02 05:13:54;;;;;;;12.52;9.35;;;6.50;82.90;;;;;;5083806;28;20103;-68
2021/04/02 05:16:23;;;;;;;11.55;8.52;;;6.40;82.70;;;;;;5081798;28;20027;-67
2021/04/02 05:18:51;;;;;;;12.13;9.50;;;6.50;83.30;;;;;;5076573;28;20025;-67
2021/04/02 05:21:17;;;;;;;13.95;9.88;;;6.50;82.70;;;;;;5088794;28;20053;-68
2021/04/02 05:23:42;;;;;;;13.77;9.50;;;6.60;82.40;;;;;;5076668;28;20102;-68
2021/04/02 05:26:13;;;;;;;8.88;7.72;;;6.60;82.00;;;;;;5081943;28;20024;-66
2021/04/02 05:28:39;;;;;;;10.77;8.77;;;6.60;81.30;;;;;;5085096;28;20461;-68
2021/04/02 05:31:05;;;;;;;11.55;8.75;;;6.50;82.10;;;;;;5074337;28;20124;-67
2021/04/02 05:33:31;;;;;;;10.82;8.93;;;6.50;82.90;;;;;;5087870;28;20793;-69
2021/04/02 05:35:57;;;;;;;14.65;9.55;;;6.60;82.50;;;;;;5078088;28;20016;-67
2021/04/02 05:38:23;;;;;;;11.73;8.85;;;6.40;83.20;;;;;;5079409;28;20634;-67
2021/04/02 05:40:49;;;;;;;16.17;9.88;;;6.50;82.90;;;;;;5086206;28;20038;-67
2021/04/02 05:43:28;;;;;;;18.40;9.77;;;6.60;83.10;;;;;;5074677;28;20028;-68
2021/04/02 05:45:56;;;;;;;13.95;9.73;;;6.50;83.40;;;;;;5082888;28;20543;-68
2021/04/02 05:48:23;;;;;;;13.95;9.13;;;6.60;82.90;;;;;;5081819;28;20040;-67
2021/04/02 05:50:50;;;;;;;16.80;9.93;;;6.50;83.50;;;;;;5075021;28;20032;-68
2021/04/02 05:53:19;;;;;;;13.80;9.80;;;6.50;83.60;;;;;;5088029;28;20501;-67
2021/04/02 05:55:46;;;;;;;17.30;10.02;;;6.50;82.80;;;;;;5076322;28;20020;-67
2021/04/02 05:58:12;;;;;;;18.73;11.68;;;6.20;83.40;;;;;;5081213;28;20062;-66
2021/04/02 06:00:39;;;;;;;20.10;10.75;;;6.00;84.20;;;;;;5084633;28;20411;-67
2021/04/02 06:03:06;;;;;;;15.98;9.63;;;6.10;85.30;;;;;;5074794;28;20029;-67
2021/04/02 06:05:32;;;;;;;16.63;9.60;;;6.30;84.50;;;;;;5087149;28;20031;-67
2021/04/02 06:07:58;;;;;;;12.90;8.60;;;6.30;83.70;;;;;;5078710;28;20023;-68
2021/04/02 06:10:25;;;;;;;13.63;8.48;;;6.50;83.30;;;;;;5079451;28;20036;-67
2021/04/02 06:12:51;;;;;;;15.43;7.32;;;6.50;83.50;;;;;;5086391;28;20416;-68
2021/04/02 06:15:21;;;;;;;50.65;27.67;;;6.60;82.90;;;;;;5074888;28;20024;-67
2021/04/02 06:18:09;;;;;;;16.77;8.52;;;6.60;83.40;;;;;;5084094;28;20017;-68
2021/04/02 06:20:44;;;;;;;25.80;16.25;;;6.60;83.60;;;;;;5083120;28;20032;-67
2021/04/02 06:23:16;;;;;;;22.33;11.82;;;6.70;83.50;;;;;;5074382;28;20056;-66
2021/04/02 06:25:56;;;;;;;16.95;7.88;;;6.70;83.40;;;;;;5084303;28;20043;-67
2021/04/02 06:28:34;;;;;;;10.25;5.90;;;6.80;82.70;;;;;;5081702;28;20028;-67
2021/04/02 06:31:08;;;;;;;11.70;7.38;;;6.80;81.90;;;;;;5074186;28;20112;-66
2021/04/02 06:33:51;;;;;;;15.80;7.47;;;6.80;81.90;;;;;;5058841;28;20024;-67
2021/04/02 06:36:18;;;;;;;11.05;7.15;;;7.00;81.50;;;;;;5062073;28;20032;-67
2021/04/02 06:38:55;;;;;;;13.32;7.65;;;7.00;81.70;;;;;;5084622;28;20113;-67
2021/04/02 06:41:23;;;;;;;13.50;7.80;;;7.00;81.80;;;;;;5074339;28;20512;-67
2021/04/02 06:43:55;;;;;;;12.65;6.97;;;7.00;81.30;;;;;;5086048;28;20170;-68
2021/04/02 06:46:27;;;;;;;10.75;6.97;;;7.00;81.30;;;;;;5085050;28;20460;-70
2021/04/02 06:49:15;;;;;;;12.55;7.35;;;7.00;80.70;;;;;;5078813;28;20062;-70
2021/04/02 06:51:43;;;;;;;12.10;6.15;;;7.00;80.80;;;;;;5065921;28;20008;-69
2021/04/02 06:54:12;;;;;;;12.95;6.82;;;7.10;80.60;;;;;;5085137;28;20103;-69
2021/04/02 06:56:44;;;;;;;9.50;6.00;;;7.10;80.20;;;;;;5087348;28;20112;-70
2021/04/02 06:59:17;;;;;;;11.27;6.00;;;7.20;79.60;;;;;;5078020;28;20112;-69
2021/04/02 07:01:47;;;;;;;10.90;5.68;;;7.00;79.20;;;;;;5088606;28;20548;-68
2021/04/02 07:04:13;;;;;;;8.60;5.13;;;7.00;79.10;;;;;;5082714;28;20031;-68
2021/04/02 07:06:41;;;;;;;8.55;5.65;;;7.00;79.30;;;;;;5079574;28;20562;-69
2021/04/02 07:09:12;;;;;;;12.40;6.47;;;6.90;79.50;;;;;;5075516;28;20518;-68
2021/04/02 07:11:39;;;;;;;10.67;7.17;;;6.90;79.40;;;;;;5092184;28;20043;-70
2021/04/02 07:14:07;;;;;;;10.77;7.07;;;6.80;79.80;;;;;;5085301;28;20013;-69
2021/04/02 07:16:33;;;;;;;13.30;7.32;;;6.90;81.00;;;;;;5078368;28;20020;-70
2021/04/02 07:19:03;;;;;;;11.73;7.55;;;6.90;80.50;;;;;;5086602;28;20032;-69
2021/04/02 07:21:32;;;;;;;11.05;7.10;;;6.90;80.20;;;;;;5061960;28;20020;-69
2021/04/02 07:23:58;;;;;;;12.60;7.68;;;7.00;80.20;;;;;;5086408;28;20082;-69
2021/04/02 07:26:24;;;;;;;12.65;6.80;;;7.10;80.30;;;;;;5084706;28;20020;-68
2021/04/02 07:28:50;;;;;;;13.82;7.68;;;7.00;79.60;;;;;;5077070;28;20046;-69
2021/04/02 07:31:18;;;;;;;11.07;6.95;;;7.10;79.80;;;;;;5062034;28;20033;-70
2021/04/02 07:33:46;;;;;;;14.80;7.95;;;7.10;79.50;;;;;;5068415;28;20015;-68
2021/04/02 07:36:13;;;;;;;183.40;111.45;;;7.10;79.40;;;;;;5080582;28;20017;-70
2021/04/02 07:38:39;;;;;;;285.13;150.02;;;7.30;79.40;;;;;;5058998;28;20552;-67
2021/04/02 07:41:13;;;;;;;23.40;13.25;;;7.30;78.50;;;;;;5084477;22;20101;-67
2021/04/02 07:43:51;;;;;;;27.35;14.98;;;7.50;78.40;;;;;;5074103;28;20382;-67
2021/04/02 07:46:24;;;;;;;16.38;9.27;;;7.40;78.40;;;;;;5073630;28;20017;-67
2021/04/02 07:48:55;;;;;;;14.65;7.93;;;7.50;77.40;;;;;;5071901;28;20012;-68
2021/04/02 07:51:21;;;;;;;10.20;7.30;;;7.60;76.70;;;;;;5083205;28;20046;-68
2021/04/02 07:53:47;;;;;;;12.23;8.73;;;7.60;75.60;;;;;;5090357;28;20024;-68
2021/04/02 07:56:22;;;;;;;13.43;8.23;;;7.50;77.30;;;;;;5093178;28;20024;-67
2021/04/02 07:58:50;;;;;;;12.88;8.35;;;7.40;77.20;;;;;;5094486;28;20031;-68
2021/04/02 08:01:18;;;;;;;16.00;9.18;;;7.30;77.90;;;;;;5093990;28;20028;-67
2021/04/02 08:03:45;;;;;;;12.25;7.97;;;7.40;77.20;;;;;;5092403;28;20020;-64
2021/04/02 08:06:34;;;;;;;12.32;7.93;;;7.50;77.50;;;;;;5091585;28;20028;-64
2021/04/02 08:09:01;;;;;;;11.88;7.63;;;7.50;76.90;;;;;;5084942;28;20505;-64
2021/04/02 08:11:31;;;;;;;11.02;6.88;;;7.60;76.60;;;;;;5092378;28;20020;-65
2021/04/02 08:14:11;;;;;;;13.45;7.55;;;7.60;76.10;;;;;;5090044;28;20027;-67
2021/04/02 08:16:42;;;;;;;11.77;7.68;;;7.50;76.20;;;;;;5086478;28;20048;-69
2021/04/02 08:19:16;;;;;;;10.97;6.93;;;7.60;76.40;;;;;;5094836;28;20514;-69
2021/04/02 08:21:49;;;;;;;10.82;7.75;;;7.50;76.70;;;;;;5092318;28;20258;-68
2021/04/02 08:24:18;;;;;;;15.70;7.63;;;7.60;76.90;;;;;;5092411;28;20423;-67
2021/04/02 08:26:46;;;;;;;12.52;8.55;;;7.60;76.40;;;;;;5090114;28;20035;-69
2021/04/02 08:29:14;;;;;;;12.10;7.75;;;7.60;76.10;;;;;;5092419;28;20028;-67
2021/04/02 08:31:45;;;;;;;14.15;8.25;;;7.50;75.90;;;;;;5091073;28;20024;-68
2021/04/02 08:34:14;;;;;;;11.68;7.45;;;7.50;76.50;;;;;;5092497;28;20024;-67
2021/04/02 08:36:40;;;;;;;13.18;7.40;;;7.60;77.40;;;;;;5092498;28;20103;-68
2021/04/02 08:39:07;;;;;;;13.23;8.20;;;7.40;77.10;;;;;;5093051;28;20025;-67
2021/04/02 08:41:33;;;;;;;11.32;7.38;;;7.40;77.40;;;;;;5108819;28;20062;-66
2021/04/02 08:43:59;;;;;;;11.48;7.70;;;7.50;77.60;;;;;;5101176;28;20024;-68
2021/04/02 08:46:44;;;;;;;13.13;7.53;;;7.50;76.70;;;;;;5100551;28;20439;-68
2021/04/02 08:49:12;;;;;;;14.68;8.32;;;7.60;76.60;;;;;;5109175;28;20020;-67
2021/04/02 08:51:39;;;;;;;13.48;7.65;;;7.50;77.50;;;;;;5097394;28;20098;-67
2021/04/02 08:54:15;;;;;;;13.73;7.63;;;7.50;77.20;;;;;;5103848;28;20016;-67
2021/04/02 08:56:40;;;;;;;14.05;8.05;;;7.50;77.80;;;;;;5076521;28;20035;-67
2021/04/02 08:59:08;;;;;;;14.02;8.75;;;7.50;77.70;;;;;;5090108;28;20016;-67
2021/04/02 09:01:37;;;;;;;15.85;9.88;;;7.60;77.10;;;;;;5107814;28;20020;-67
2021/04/02 09:04:05;;;;;;;16.23;8.68;;;7.70;77.20;;;;;;5091889;28;20019;-69
2021/04/02 09:06:31;;;;;;;15.48;9.18;;;7.50;77.60;;;;;;5075442;28;20579;-70
2021/04/02 09:08:57;;;;;;;17.08;9.23;;;7.60;78.00;;;;;;5107007;28;20028;-67
2021/04/02 09:11:23;;;;;;;52.15;34.80;;;7.50;77.90;;;;;;5094296;28;20016;-66
2021/04/02 09:13:52;;;;;;;76.82;42.67;;;7.50;78.40;;;;;;5104435;28;20020;-67
2021/04/02 09:16:20;;;;;;;46.50;26.02;;;7.70;78.90;;;;;;5078884;28;20020;-67
2021/04/02 09:18:57;;;;;;;17.92;12.18;;;7.60;78.00;;;;;;5086297;28;20085;-69
2021/04/02 09:21:26;;;;;;;19.85;11.02;;;7.50;78.60;;;;;;5088913;28;20016;-69
2021/04/02 09:23:53;;;;;;;17.13;9.73;;;7.50;78.10;;;;;;5087826;28;20051;-68
2021/04/02 09:26:20;;;;;;;15.18;9.50;;;7.50;78.70;;;;;;5092448;28;20071;-68
2021/04/02 09:28:46;;;;;;;17.27;11.05;;;7.50;77.90;;;;;;5090609;28;20545;-68
2021/04/02 09:31:33;;;;;;;19.02;10.48;;;7.50;78.10;;;;;;5095077;28;20073;-71
2021/04/02 09:34:01;;;;;;;17.63;9.48;;;7.50;78.20;;;;;;5083154;28;20085;-67
2021/04/02 09:36:30;;;;;;;15.75;9.00;;;7.50;78.90;;;;;;5083840;28;20345;-68
2021/04/02 09:39:07;;;;;;;15.35;8.25;;;7.50;79.00;;;;;;5089106;28;20028;-68
2021/04/02 09:41:34;;;;;;;13.68;8.60;;;7.50;78.20;;;;;;5085072;28;20145;-67
2021/04/02 09:44:13;;;;;;;12.90;8.40;;;7.60;77.70;;;;;;5087958;28;20104;-66
2021/04/02 09:46:41;;;;;;;12.73;7.88;;;7.70;77.10;;;;;;5091208;28;20034;-66
2021/04/02 09:49:20;;;;;;;16.73;9.88;;;7.60;79.00;;;;;;5094173;28;20020;-66
2021/04/02 09:51:48;;;;;;;13.02;8.18;;;7.40;79.00;;;;;;5088766;28;20099;-66
2021/04/02 09:54:15;;;;;;;14.13;9.02;;;7.30;78.50;;;;;;5085152;28;20038;-67
2021/04/02 09:56:41;;;;;;;8.65;5.70;;;7.40;80.30;;;;;;5089701;28;20024;-68
2021/04/02 09:59:07;;;;;;;11.32;7.07;;;7.40;78.80;;;;;;5093243;28;20118;-68
2021/04/02 10:01:34;;;;;;;9.20;6.38;;;7.40;79.20;;;;;;5089315;28;20031;-68
2021/04/02 10:04:00;;;;;;;7.90;5.32;;;7.50;78.40;;;;;;5091722;28;20031;-66
2021/04/02 10:06:26;;;;;;;11.80;6.68;;;7.70;78.10;;;;;;5087520;28;20024;-66
2021/04/02 10:08:52;;;;;;;14.63;7.32;;;7.70;78.00;;;;;;5091428;28;20107;-66
2021/04/02 10:11:17;;;;;;;11.70;7.95;;;7.80;77.40;;;;;;5109281;28;20425;-67
2021/04/02 10:13:43;;;;;;;12.05;7.38;;;7.80;76.90;;;;;;5087275;28;20035;-69
2021/04/02 10:16:09;;;;;;;9.63;5.70;;;7.90;77.40;;;;;;5088102;28;20022;-69
2021/04/02 10:18:36;;;;;;;8.10;4.70;;;8.00;76.60;;;;;;5107279;28;20024;-69
2021/04/02 10:21:03;;;;;;;7.15;5.07;;;7.90;75.90;;;;;;5098881;28;20516;-69
2021/04/02 10:23:29;;;;;;;8.57;5.00;;;7.90;75.70;;;;;;5103322;28;20052;-69
2021/04/02 10:25:54;;;;;;;6.82;4.50;;;7.90;75.50;;;;;;5102675;28;20020;-69
2021/04/02 10:28:22;;;;;;;6.32;4.10;;;8.00;74.60;;;;;;5104229;28;20077;-66
2021/04/02 10:30:48;;;;;;;7.50;4.63;;;8.10;75.60;;;;;;5106501;28;20123;-67
2021/04/02 10:33:14;;;;;;;5.13;3.95;;;8.30;75.10;;;;;;5096954;28;20024;-67
2021/04/02 10:35:40;;;;;;;10.82;4.47;;;8.10;74.90;;;;;;5094761;28;20081;-66
2021/04/02 10:38:05;;;;;;;6.88;3.85;;;8.30;73.70;;;;;;5092395;28;20481;-70
2021/04/02 10:40:33;;;;;;;40.50;21.15;;;8.40;73.50;;;;;;5092409;28;20035;-68
2021/04/02 10:42:59;;;;;;;24.33;12.00;;;8.20;73.90;;;;;;5093907;28;20029;-69
2021/04/02 10:45:25;;;;;;;117.93;53.17;;;8.00;74.00;;;;;;5095930;28;20076;-68
2021/04/02 10:47:50;;;;;;;33.90;13.38;;;8.00;75.80;;;;;;5089706;28;20027;-68
2021/04/02 10:50:16;;;;;;;21.73;8.65;;;8.10;74.10;;;;;;5112264;28;20069;-68
2021/04/02 10:52:42;;;;;;;17.80;7.38;;;8.20;74.00;;;;;;5100853;28;20529;-67
2021/04/02 10:55:08;;;;;;;13.80;7.18;;;8.40;73.50;;;;;;5111482;28;20024;-67
2021/04/02 10:57:34;;;;;;;36.88;14.45;;;8.50;72.60;;;;;;5086736;28;20390;-68
2021/04/02 10:59:59;;;;;;;56.78;30.98;;;8.70;71.90;;;;;;5089195;28;20078;-69
2021/04/02 11:02:27;;;;;;;18.63;8.98;;;9.10;70.00;;;;;;5113858;28;20035;-67
2021/04/02 11:04:53;;;;;;;36.60;16.88;;;9.20;69.50;;;;;;5098875;28;20108;-68
2021/04/02 11:07:18;;;;;;;17.00;7.65;;;9.50;68.00;;;;;;5108590;28;20081;-69
2021/04/02 11:09:44;;;;;;;23.92;13.13;;;9.70;67.30;;;;;;5101222;28;20021;-69
2021/04/02 11:12:12;;;;;;;25.55;13.25;;;10.10;65.70;;;;;;5090039;28;20024;-67
2021/04/02 11:14:37;;;;;;;35.33;16.65;;;10.50;64.80;;;;;;5096840;28;20042;-69
2021/04/02 11:17:03;;;;;;;42.10;18.63;;;10.80;63.80;;;;;;5081115;28;20474;-68
2021/04/02 11:19:29;;;;;;;47.22;20.80;;;11.10;62.90;;;;;;5110940;28;20486;-69
2021/04/02 11:21:54;;;;;;;42.58;20.50;;;11.20;62.40;;;;;;5085593;28;20024;-68
2021/04/02 11:24:20;;;;;;;36.30;16.95;;;11.30;62.00;;;;;;5084905;28;20056;-68
2021/04/02 11:26:45;;;;;;;29.65;13.70;;;11.30;60.70;;;;;;5107902;28;20051;-67
2021/04/02 11:29:11;;;;;;;20.70;10.77;;;11.60;60.20;;;;;;5095970;28;20024;-68
2021/04/02 11:31:36;;;;;;;15.75;8.00;;;11.90;58.60;;;;;;5099489;28;20082;-68
2021/04/02 11:34:03;;;;;;;22.50;9.45;;;12.00;57.50;;;;;;5105818;28;20030;-68
2021/04/02 11:36:28;;;;;;;12.88;6.78;;;11.70;57.70;;;;;;5079630;28;20021;-68
2021/04/02 11:38:54;;;;;;;19.75;10.30;;;11.40;58.30;;;;;;5105227;28;20030;-68
2021/04/02 11:41:19;;;;;;;11.70;6.40;;;11.40;58.40;;;;;;5097046;28;20043;-68
2021/04/02 11:43:45;;;;;;;30.52;14.18;;;11.20;58.70;;;;;;5107873;28;20081;-67
2021/04/02 11:46:10;;;;;;;24.75;12.65;;;11.20;59.40;;;;;;5084641;28;20669;-66
2021/04/02 11:48:36;;;;;;;13.45;6.43;;;11.20;59.00;;;;;;5093382;28;20405;-67
2021/04/02 11:51:02;;;;;;;54.13;24.42;;;11.40;58.90;;;;;;5110031;28;20035;-66
2021/04/02 11:53:27;;;;;;;21.27;13.55;;;11.60;59.20;;;;;;5092039;28;20103;-66
2021/04/02 11:55:53;;;;;;;35.10;18.05;;;11.60;57.30;;;;;;5100696;28;20042;-66
2021/04/02 11:58:18;;;;;;;28.25;16.23;;;12.00;57.40;;;;;;5102004;28;20016;-67
2021/04/02 12:00:44;;;;;;;27.77;15.82;;;12.00;56.80;;;;;;5107953;28;20068;-66
2021/04/02 12:03:10;;;;;;;34.35;18.33;;;12.00;58.10;;;;;;5079048;28;20058;-67
2021/04/02 12:05:35;;;;;;;17.75;9.40;;;11.90;56.70;;;;;;5102805;28;20389;-66
2021/04/02 12:08:01;;;;;;;21.48;12.13;;;12.00;55.10;;;;;;5089618;28;20027;-69
2021/04/02 12:10:26;;;;;;;20.40;9.63;;;11.80;55.50;;;;;;5101474;28;20090;-68
2021/04/02 12:12:52;;;;;;;33.20;13.98;;;11.40;56.30;;;;;;5076101;28;20812;-69
2021/04/02 12:15:20;;;;;;;32.30;15.60;;;11.40;57.90;;;;;;5094306;28;20027;-68
2021/04/02 12:17:46;;;;;;;19.55;10.90;;;11.20;58.10;;;;;;5106555;28;20024;-68
2021/04/02 12:20:14;;;;;;;19.65;9.98;;;11.00;58.10;;;;;;5082153;28;20027;-68
2021/04/02 12:22:40;;;;;;;14.93;7.55;;;10.70;58.90;;;;;;5086601;28;20082;-67
2021/04/02 12:25:09;;;;;;;32.20;15.80;;;10.70;59.90;;;;;;5087771;28;20056;-67
2021/04/02 12:27:34;;;;;;;36.35;18.77;;;10.70;60.80;;;;;;5096769;28;20035;-67
2021/04/02 12:30:00;;;;;;;27.00;14.18;;;10.60;61.00;;;;;;5104180;28;20024;-66
2021/04/02 12:32:25;;;;;;;26.23;11.70;;;10.40;60.00;;;;;;5109849;28;20076;-66
2021/04/02 12:34:51;;;;;;;98.53;57.65;;;10.20;60.60;;;;;;5097242;28;20785;-67
2021/04/02 12:37:17;;;;;;;74.97;49.38;;;10.20;60.70;;;;;;5108587;28;20024;-66
2021/04/02 12:39:42;;;;;;;14.18;5.95;;;10.10;60.80;;;;;;5098384;28;20023;-67
2021/04/02 12:42:09;;;;;;;25.83;12.75;;;10.20;60.50;;;;;;5103185;28;20390;-67
2021/04/02 12:44:35;;;;;;;42.08;20.65;;;10.40;61.00;;;;;;5105625;28;20089;-66
2021/04/02 12:47:00;;;;;;;19.35;9.10;;;10.40;61.20;;;;;;5095514;28;20027;-67
2021/04/02 12:49:26;;;;;;;35.40;15.50;;;10.50;60.10;;;;;;5079514;28;20028;-68
2021/04/02 12:51:51;;;;;;;15.73;7.90;;;10.40;60.90;;;;;;5105734;28;20020;-67